Time;durP1;ratioP1;P1;durP2;ratioP2;P2;SDS_P1;SDS_P2;PMS_P1;PMS_P2;Temp;Humidity;BMP_temperature;BMP_pressure;BME280_temperature;BME280_humidity;BME280_pressure;Samples;Min_cycle;Max_cycle;Signal;HPM_P1;HPM_P2
2022/04/20 00:01:13;;;;;;;5.95;4.35;;;;;;;;;;5072620;28;20032;-29
2022/04/20 00:03:39;;;;;;;6.68;3.85;;;;;;;;;;5072901;28;20045;-30
2022/04/20 00:06:05;;;;;;;5.68;4.38;;;;;;;;;;5071577;28;20040;-28
2022/04/20 00:08:32;;;;;;;6.22;4.32;;;;;;;;;;5072995;28;20032;-30
2022/04/20 00:10:58;;;;;;;6.03;3.60;;;;;;;;;;5071728;28;20489;-29
2022/04/20 00:13:25;;;;;;;6.32;4.05;;;;;;;;;;5072543;28;20050;-28
2022/04/20 00:15:51;;;;;;;5.50;3.83;;;;;;;;;;5072001;28;20123;-30
2022/04/20 00:18:17;;;;;;;6.15;4.68;;;;;;;;;;5072268;28;20124;-29
2022/04/20 00:20:43;;;;;;;5.85;4.75;;;;;;;;;;5072295;28;20032;-29
2022/04/20 00:23:09;;;;;;;5.10;4.53;;;;;;;;;;5071962;28;20078;-32
2022/04/20 00:25:35;;;;;;;5.55;4.00;;;;;;;;;;5071671;28;20040;-30
2022/04/20 00:28:02;;;;;;;6.25;4.85;;;;;;;;;;5071578;28;20037;-29
2022/04/20 00:30:28;;;;;;;5.90;4.28;;;;;;;;;;5071803;28;20190;-33
2022/04/20 00:32:55;;;;;;;5.57;4.57;;;;;;;;;;5054041;28;20036;-32
2022/04/20 00:35:21;;;;;;;9.55;4.75;;;;;;;;;;5071313;28;20579;-28
2022/04/20 00:37:48;;;;;;;5.63;4.40;;;;;;;;;;5064629;28;20056;-29
2022/04/20 00:40:14;;;;;;;6.40;4.50;;;;;;;;;;5061008;28;20103;-29
2022/04/20 00:42:40;;;;;;;7.05;4.85;;;;;;;;;;5051999;28;20040;-30
2022/04/20 00:45:10;;;;;;;5.95;4.45;;;;;;;;;;5043281;28;20040;-30
2022/04/20 00:47:37;;;;;;;8.35;4.97;;;;;;;;;;5071253;28;20115;-29
2022/04/20 00:50:04;;;;;;;7.57;5.07;;;;;;;;;;5071504;28;20151;-29
2022/04/20 00:52:30;;;;;;;6.22;4.47;;;;;;;;;;5053783;28;20040;-32
2022/04/20 00:54:56;;;;;;;7.25;5.45;;;;;;;;;;5071130;28;20032;-29
2022/04/20 00:57:22;;;;;;;6.30;4.75;;;;;;;;;;5071622;28;20045;-29
2022/04/20 00:59:49;;;;;;;7.43;5.03;;;;;;;;;;5071038;28;20120;-30
2022/04/20 01:02:15;;;;;;;7.28;5.35;;;;;;;;;;5071851;28;20168;-28
2022/04/20 01:04:41;;;;;;;6.05;4.80;;;;;;;;;;5071485;28;20056;-28
2022/04/20 01:07:11;;;;;;;6.63;5.15;;;;;;;;;;5072256;28;20175;-25
2022/04/20 01:09:38;;;;;;;7.13;4.55;;;;;;;;;;5072471;28;20079;-30
2022/04/20 01:12:04;;;;;;;6.97;5.28;;;;;;;;;;5071131;28;20037;-29
2022/04/20 01:14:30;;;;;;;7.20;5.35;;;;;;;;;;5071672;28;20045;-30
2022/04/20 01:16:56;;;;;;;7.70;5.30;;;;;;;;;;5071363;28;20593;-31
2022/04/20 01:19:22;;;;;;;7.97;5.30;;;;;;;;;;5071976;28;20036;-29
2022/04/20 01:21:48;;;;;;;7.63;5.13;;;;;;;;;;5070855;28;20090;-30
2022/04/20 01:24:14;;;;;;;9.13;5.75;;;;;;;;;;5071057;28;20047;-30
2022/04/20 01:26:41;;;;;;;9.93;5.38;;;;;;;;;;5071068;28;20037;-31
2022/04/20 01:29:08;;;;;;;7.95;5.60;;;;;;;;;;5071625;28;20097;-29
2022/04/20 01:31:34;;;;;;;7.35;4.72;;;;;;;;;;5070858;28;20040;-31
2022/04/20 01:34:00;;;;;;;7.50;5.85;;;;;;;;;;5071348;28;20483;-29
2022/04/20 01:36:26;;;;;;;8.73;5.30;;;;;;;;;;5070423;28;20386;-30
2022/04/20 01:38:52;;;;;;;7.45;4.93;;;;;;;;;;5071199;28;20076;-30
2022/04/20 01:41:18;;;;;;;7.35;5.00;;;;;;;;;;5070936;28;20037;-32
2022/04/20 01:43:44;;;;;;;12.82;6.15;;;;;;;;;;5066528;28;20045;-31
2022/04/20 01:46:10;;;;;;;7.38;5.50;;;;;;;;;;5071433;28;20110;-25
2022/04/20 01:48:36;;;;;;;8.15;5.70;;;;;;;;;;5072213;28;20040;-31
2022/04/20 01:53:47;;;;;;;7.25;5.63;;;;;;;;;;5071202;28;20131;-30
2022/04/20 01:56:13;;;;;;;8.70;5.53;;;;;;;;;;5070689;28;20093;-30
2022/04/20 01:58:39;;;;;;;6.40;5.35;;;;;;;;;;5072570;28;20075;-33
2022/04/20 02:02:34;;;;;;;8.52;5.82;;;;;;;;;;5074586;28;20033;-35
2022/04/20 02:03:51;;;;;;;10.60;6.18;;;;;;;;;;5075976;28;20412;-28
2022/04/20 02:06:17;;;;;;;7.75;5.70;;;;;;;;;;5075535;28;20051;-32
2022/04/20 02:08:44;;;;;;;6.45;5.35;;;;;;;;;;5074616;28;20040;-30
2022/04/20 02:11:10;;;;;;;8.35;5.28;;;;;;;;;;5074075;28;20113;-31
2022/04/20 02:13:36;;;;;;;6.35;5.43;;;;;;;;;;5074287;28;20128;-30
2022/04/20 02:16:02;;;;;;;6.95;5.85;;;;;;;;;;5074254;28;20382;-32
2022/04/20 02:18:28;;;;;;;7.60;5.75;;;;;;;;;;5074332;28;20098;-31
2022/04/20 02:20:54;;;;;;;8.27;6.15;;;;;;;;;;5073810;28;20397;-30
2022/04/20 02:23:20;;;;;;;6.45;5.25;;;;;;;;;;5073698;28;20120;-32
2022/04/20 02:25:46;;;;;;;6.80;5.55;;;;;;;;;;5074145;28;20033;-30
2022/04/20 02:28:12;;;;;;;7.63;5.95;;;;;;;;;;5071589;28;20068;-31
2022/04/20 02:30:39;;;;;;;9.15;5.93;;;;;;;;;;5074466;28;20458;-30
2022/04/20 02:33:05;;;;;;;9.02;6.65;;;;;;;;;;5073413;28;20040;-30
2022/04/20 02:35:31;;;;;;;7.95;5.75;;;;;;;;;;5074376;28;20070;-30
2022/04/20 02:37:59;;;;;;;8.23;5.93;;;;;;;;;;5073643;28;20060;-30
2022/04/20 02:40:25;;;;;;;8.27;5.25;;;;;;;;;;5073876;28;20085;-29
2022/04/20 02:42:51;;;;;;;8.93;6.32;;;;;;;;;;5072648;28;20040;-31
2022/04/20 02:45:19;;;;;;;8.68;5.80;;;;;;;;;;5073887;28;20036;-31
2022/04/20 02:47:45;;;;;;;8.85;6.15;;;;;;;;;;5073380;28;20520;-30
2022/04/20 02:50:11;;;;;;;6.22;5.45;;;;;;;;;;5073494;28;20040;-30
2022/04/20 02:52:37;;;;;;;10.07;5.93;;;;;;;;;;5073157;28;20544;-28
2022/04/20 02:55:04;;;;;;;9.23;5.60;;;;;;;;;;5073570;28;20040;-29
2022/04/20 02:57:30;;;;;;;8.05;5.25;;;;;;;;;;5073206;28;20040;-30
2022/04/20 02:59:56;;;;;;;8.32;5.60;;;;;;;;;;5073718;28;20041;-32
2022/04/20 03:02:22;;;;;;;9.73;6.25;;;;;;;;;;5071963;28;20041;-30
2022/04/20 03:04:48;;;;;;;8.70;6.63;;;;;;;;;;5073700;28;20086;-32
2022/04/20 03:07:14;;;;;;;8.82;5.97;;;;;;;;;;5072895;28;20124;-31
2022/04/20 03:09:40;;;;;;;7.85;5.63;;;;;;;;;;5072252;28;20037;-30
2022/04/20 03:12:06;;;;;;;7.68;5.72;;;;;;;;;;5072452;28;20123;-30
2022/04/20 03:14:32;;;;;;;9.30;6.30;;;;;;;;;;5073442;28;20465;-31
2022/04/20 03:16:58;;;;;;;7.35;5.57;;;;;;;;;;5073279;28;20047;-30
2022/04/20 03:19:24;;;;;;;10.38;5.25;;;;;;;;;;5054490;28;20040;-32
2022/04/20 03:21:51;;;;;;;8.02;6.07;;;;;;;;;;5072551;28;20128;-31
2022/04/20 03:24:17;;;;;;;8.20;6.50;;;;;;;;;;5072974;28;20454;-30
2022/04/20 03:26:43;;;;;;;8.23;5.50;;;;;;;;;;5072915;28;20071;-30
2022/04/20 03:29:09;;;;;;;7.50;5.57;;;;;;;;;;5072722;28;20068;-31
2022/04/20 03:31:37;;;;;;;10.23;6.25;;;;;;;;;;5072728;28;20044;-34
2022/04/20 03:34:03;;;;;;;8.68;6.20;;;;;;;;;;5071980;28;20052;-31
2022/04/20 03:36:30;;;;;;;8.10;6.28;;;;;;;;;;5072636;28;20044;-31
2022/04/20 03:38:56;;;;;;;7.00;5.57;;;;;;;;;;5072477;28;20051;-32
2022/04/20 03:41:22;;;;;;;6.72;5.55;;;;;;;;;;5072637;28;20048;-32
2022/04/20 03:43:51;;;;;;;7.07;6.00;;;;;;;;;;5070945;28;20047;-31
2022/04/20 03:46:17;;;;;;;6.32;5.70;;;;;;;;;;5072651;28;20040;-29
2022/04/20 03:48:45;;;;;;;9.27;5.97;;;;;;;;;;5072043;28;20056;-29
2022/04/20 03:51:11;;;;;;;10.50;5.85;;;;;;;;;;5072350;28;20045;-28
2022/04/20 03:53:37;;;;;;;7.85;5.88;;;;;;;;;;5072522;28;20057;-29
2022/04/20 03:56:04;;;;;;;7.95;5.85;;;;;;;;;;5072954;28;20119;-30
2022/04/20 03:58:30;;;;;;;7.70;5.78;;;;;;;;;;5071882;28;20048;-29
2022/04/20 04:00:56;;;;;;;10.00;6.25;;;;;;;;;;5054132;28;20048;-32
2022/04/20 04:03:22;;;;;;;9.73;6.78;;;;;;;;;;5071510;28;20041;-31
2022/04/20 04:05:48;;;;;;;7.05;5.72;;;;;;;;;;5071992;28;20041;-30
2022/04/20 04:08:14;;;;;;;9.75;6.30;;;;;;;;;;5071955;28;20063;-30
2022/04/20 04:10:40;;;;;;;8.55;5.80;;;;;;;;;;5072259;28;20502;-30
2022/04/20 04:13:06;;;;;;;7.82;6.38;;;;;;;;;;5071761;28;20041;-32
2022/04/20 04:15:33;;;;;;;7.97;5.97;;;;;;;;;;5071035;28;20166;-26
2022/04/20 04:18:00;;;;;;;9.05;6.13;;;;;;;;;;5072528;28;20080;-27
2022/04/20 04:20:26;;;;;;;9.93;6.50;;;;;;;;;;5072052;28;20052;-27
2022/04/20 04:22:53;;;;;;;8.20;6.25;;;;;;;;;;5071925;28;20043;-26
2022/04/20 04:25:19;;;;;;;8.63;5.97;;;;;;;;;;5072626;28;20117;-26
2022/04/20 04:27:46;;;;;;;11.13;7.00;;;;;;;;;;5072514;28;20368;-28
2022/04/20 04:30:12;;;;;;;9.98;6.38;;;;;;;;;;5072132;28;20482;-25
2022/04/20 04:32:38;;;;;;;10.90;6.28;;;;;;;;;;5072418;28;20040;-27
2022/04/20 04:35:05;;;;;;;9.65;6.80;;;;;;;;;;5072313;28;20482;-28
2022/04/20 04:37:33;;;;;;;9.30;6.53;;;;;;;;;;5071586;28;20040;-26
2022/04/20 04:39:59;;;;;;;8.75;6.50;;;;;;;;;;5071917;28;20490;-28
2022/04/20 04:42:26;;;;;;;9.55;6.90;;;;;;;;;;5072098;28;20119;-25
2022/04/20 04:44:52;;;;;;;8.52;6.25;;;;;;;;;;5072238;28;20094;-26
2022/04/20 04:50:03;;;;;;;9.45;7.00;;;;;;;;;;5072228;28;20052;-26
2022/04/20 04:52:29;;;;;;;8.23;7.25;;;;;;;;;;5072205;28;20476;-26
2022/04/20 04:54:56;;;;;;;10.45;7.45;;;;;;;;;;5072043;28;20547;-26
2022/04/20 04:57:22;;;;;;;12.05;7.93;;;;;;;;;;5071526;28;20083;-27
2022/04/20 04:59:48;;;;;;;7.70;6.18;;;;;;;;;;5072091;28;20040;-27
2022/04/20 05:02:14;;;;;;;8.82;7.40;;;;;;;;;;5072171;28;20036;-25
2022/04/20 05:04:40;;;;;;;10.23;6.65;;;;;;;;;;5072010;28;20044;-25
2022/04/20 05:07:07;;;;;;;10.02;6.65;;;;;;;;;;5072089;28;20482;-27
2022/04/20 05:09:33;;;;;;;9.25;6.82;;;;;;;;;;5071755;28;20032;-26
2022/04/20 05:12:01;;;;;;;11.90;7.50;;;;;;;;;;5072150;28;20121;-25
2022/04/20 05:14:27;;;;;;;10.05;6.82;;;;;;;;;;5071193;28;20048;-26
2022/04/20 05:16:55;;;;;;;9.68;7.68;;;;;;;;;;5071888;28;20439;-29
2022/04/20 05:19:21;;;;;;;9.00;6.82;;;;;;;;;;5071767;28;20087;-27
2022/04/20 05:21:48;;;;;;;12.80;7.78;;;;;;;;;;5071810;28;20494;-27
2022/04/20 05:24:14;;;;;;;8.57;7.03;;;;;;;;;;5060393;28;20091;-27
2022/04/20 05:26:40;;;;;;;10.52;7.20;;;;;;;;;;5054952;28;20479;-30
2022/04/20 05:29:07;;;;;;;10.32;7.43;;;;;;;;;;5062076;28;20036;-29
2022/04/20 05:31:33;;;;;;;10.27;6.97;;;;;;;;;;5065633;28;20543;-28
2022/04/20 05:34:00;;;;;;;8.85;6.95;;;;;;;;;;5058424;28;20037;-29
2022/04/20 05:41:39;;;;;;;9.50;6.82;;;;;;;;;;5064581;28;20039;-30
2022/04/20 05:41:57;;;;;;;9.85;7.35;;;;;;;;;;5066653;28;20052;-29
2022/04/20 05:44:23;;;;;;;11.07;7.68;;;;;;;;;;5064498;28;20041;-30
2022/04/20 05:46:50;;;;;;;10.77;7.07;;;;;;;;;;5066513;28;20044;-29
2022/04/20 05:49:16;;;;;;;16.35;7.10;;;;;;;;;;5061862;28;20059;-31
2022/04/20 05:51:42;;;;;;;10.77;7.47;;;;;;;;;;5070132;28;20456;-28
2022/04/20 05:54:08;;;;;;;11.57;7.60;;;;;;;;;;5075003;28;20036;-28
2022/04/20 05:56:35;;;;;;;9.80;6.80;;;;;;;;;;5074737;28;20037;-31
2022/04/20 05:59:01;;;;;;;9.35;7.40;;;;;;;;;;5037064;28;20114;-25
2022/04/20 06:01:27;;;;;;;12.20;7.18;;;;;;;;;;5053942;28;20123;-29
2022/04/20 06:03:53;;;;;;;10.88;6.70;;;;;;;;;;5062089;28;20486;-28
2022/04/20 06:06:19;;;;;;;9.40;6.90;;;;;;;;;;5060367;28;20029;-29
2022/04/20 06:08:47;;;;;;;9.20;7.55;;;;;;;;;;5066656;28;20268;-33
2022/04/20 06:11:13;;;;;;;8.57;7.57;;;;;;;;;;5070327;28;20076;-29
2022/04/20 06:13:39;;;;;;;8.25;6.95;;;;;;;;;;5073451;28;20040;-33
2022/04/20 06:16:06;;;;;;;9.27;7.28;;;;;;;;;;5074047;28;20045;-29
2022/04/20 06:18:32;;;;;;;8.40;7.20;;;;;;;;;;5056785;28;20079;-33
2022/04/20 06:20:58;;;;;;;9.35;6.80;;;;;;;;;;5055599;28;20505;-30
2022/04/20 06:23:24;;;;;;;9.02;6.85;;;;;;;;;;5074499;28;20040;-28
2022/04/20 06:25:54;;;;;;;10.45;6.80;;;;;;;;;;5073575;28;20036;-31
2022/04/20 06:28:20;;;;;;;9.27;7.40;;;;;;;;;;5074646;28;20028;-26
2022/04/20 06:30:46;;;;;;;7.22;6.47;;;;;;;;;;5067394;28;20033;-30
2022/04/20 06:33:12;;;;;;;9.60;6.80;;;;;;;;;;5054015;28;20044;-29
2022/04/20 06:35:38;;;;;;;7.82;7.03;;;;;;;;;;5052837;28;20102;-28
2022/04/20 06:38:04;;;;;;;7.50;6.70;;;;;;;;;;5074075;28;20093;-27
2022/04/20 06:40:31;;;;;;;8.10;6.50;;;;;;;;;;5074159;28;20497;-28
2022/04/20 06:42:57;;;;;;;6.78;5.97;;;;;;;;;;5073901;28;20550;-30
2022/04/20 06:45:23;;;;;;;9.63;6.50;;;;;;;;;;5072759;28;20497;-27
2022/04/20 06:47:49;;;;;;;7.45;6.65;;;;;;;;;;5073790;28;20539;-27
2022/04/20 06:50:16;;;;;;;9.13;6.55;;;;;;;;;;5073931;28;20041;-31
2022/04/20 06:58:35;;;;;;;9.60;6.75;;;;;;;;;;5073602;28;20044;-29
2022/04/20 07:01:04;;;;;;;7.50;6.65;;;;;;;;;;5073442;28;20047;-29
2022/04/20 07:03:31;;;;;;;8.27;6.22;;;;;;;;;;5073797;28;20048;-28
2022/04/20 07:05:57;;;;;;;7.50;6.68;;;;;;;;;;5061782;28;20053;-32
2022/04/20 07:08:23;;;;;;;7.40;6.47;;;;;;;;;;5073162;28;20089;-28
2022/04/20 07:10:49;;;;;;;7.80;6.55;;;;;;;;;;5072030;28;20623;-24
2022/04/20 07:13:16;;;;;;;10.27;6.82;;;;;;;;;;5074040;28;20135;-25
2022/04/20 07:15:42;;;;;;;8.77;6.47;;;;;;;;;;5074752;28;20037;-26
2022/04/20 07:18:08;;;;;;;7.85;6.10;;;;;;;;;;5074394;28;20072;-24
2022/04/20 07:20:35;;;;;;;8.45;6.03;;;;;;;;;;5073565;28;20043;-26
2022/04/20 07:23:01;;;;;;;7.35;6.40;;;;;;;;;;5074064;28;20040;-26
2022/04/20 07:25:29;;;;;;;7.15;5.57;;;;;;;;;;5073636;28;20466;-25
2022/04/20 07:27:55;;;;;;;6.90;5.78;;;;;;;;;;5073599;28;20101;-27
2022/04/20 07:30:21;;;;;;;7.53;6.43;;;;;;;;;;5055467;28;20109;-26
2022/04/20 07:32:48;;;;;;;7.47;5.82;;;;;;;;;;5073384;28;20043;-28
2022/04/20 07:35:16;;;;;;;7.53;5.28;;;;;;;;;;5073759;28;20409;-25
2022/04/20 07:37:42;;;;;;;7.15;5.18;;;;;;;;;;5073400;28;20036;-27
2022/04/20 07:40:08;;;;;;;6.80;5.47;;;;;;;;;;5073575;28;20040;-26
2022/04/20 07:42:36;;;;;;;5.90;5.30;;;;;;;;;;5073899;28;20052;-27
2022/04/20 07:45:02;;;;;;;7.03;5.53;;;;;;;;;;5073787;28;20083;-27
2022/04/20 07:47:29;;;;;;;5.60;4.82;;;;;;;;;;5074115;28;20040;-31
2022/04/20 07:52:41;;;;;;;6.57;4.85;;;;;;;;;;5073708;28;20119;-28
2022/04/20 07:55:09;;;;;;;5.53;5.03;;;;;;;;;;5073573;28;20097;-25
2022/04/20 07:57:35;;;;;;;4.80;4.30;;;;;;;;;;5073291;28;20366;-27
2022/04/20 08:00:03;;;;;;;6.90;5.05;;;;;;;;;;5073134;28;20500;-27
2022/04/20 08:02:29;;;;;;;5.35;4.18;;;;;;;;;;5073191;28;20124;-26
2022/04/20 08:04:55;;;;;;;5.22;4.10;;;;;;;;;;5073496;28;20040;-26
2022/04/20 08:07:21;;;;;;;5.22;4.50;;;;;;;;;;5072537;28;20119;-27
2022/04/20 08:09:47;;;;;;;5.85;4.43;;;;;;;;;;5072013;28;20032;-25
2022/04/20 08:12:13;;;;;;;4.95;4.13;;;;;;;;;;5072029;28;20041;-25
2022/04/20 08:14:39;;;;;;;4.40;3.90;;;;;;;;;;5071804;28;20109;-25
2022/04/20 08:17:05;;;;;;;5.20;4.63;;;;;;;;;;5071863;28;20402;-25
2022/04/20 08:19:31;;;;;;;4.15;3.75;;;;;;;;;;5071672;28;20068;-27
2022/04/20 08:21:58;;;;;;;6.47;3.88;;;;;;;;;;5071604;28;20094;-25
2022/04/20 08:24:24;;;;;;;7.20;3.58;;;;;;;;;;5053581;28;20124;-25
2022/04/20 08:26:50;;;;;;;3.83;3.17;;;;;;;;;;5071685;28;20493;-26
2022/04/20 08:29:16;;;;;;;8.88;3.20;;;;;;;;;;5071726;28;20475;-27
2022/04/20 08:31:42;;;;;;;4.45;3.78;;;;;;;;;;5071713;28;20079;-25
2022/04/20 08:34:09;;;;;;;5.63;3.22;;;;;;;;;;5071622;28;20059;-26
2022/04/20 08:36:35;;;;;;;3.70;3.40;;;;;;;;;;5071524;28;20083;-25
2022/04/20 08:39:01;;;;;;;4.65;4.10;;;;;;;;;;5071519;28;20036;-28
2022/04/20 08:41:27;;;;;;;3.67;3.30;;;;;;;;;;5071141;28;20089;-27
2022/04/20 08:43:53;;;;;;;4.70;3.17;;;;;;;;;;5071351;28;20398;-27
2022/04/20 08:46:19;;;;;;;4.22;3.33;;;;;;;;;;5071602;28;20059;-26
2022/04/20 08:48:45;;;;;;;3.83;2.78;;;;;;;;;;5071496;28;20493;-29
2022/04/20 08:51:11;;;;;;;4.78;3.55;;;;;;;;;;5071425;28;20066;-26
2022/04/20 08:53:38;;;;;;;3.40;3.10;;;;;;;;;;5071274;28;20565;-26
2022/04/20 08:58:50;;;;;;;4.00;3.50;;;;;;;;;;5071449;28;20507;-25
2022/04/20 09:01:17;;;;;;;4.40;3.83;;;;;;;;;;5071176;28;20418;-27
2022/04/20 09:03:44;;;;;;;3.90;3.38;;;;;;;;;;5071140;28;20044;-27
2022/04/20 09:06:11;;;;;;;3.65;3.03;;;;;;;;;;5071125;28;20083;-27
2022/04/20 09:08:38;;;;;;;4.03;3.30;;;;;;;;;;5070353;28;20064;-27
2022/04/20 09:11:04;;;;;;;3.88;3.30;;;;;;;;;;5070872;28;20040;-28
2022/04/20 09:13:35;;;;;;;4.55;2.90;;;;;;;;;;5071159;28;20562;-27
2022/04/20 09:16:05;;;;;;;5.90;2.95;;;;;;;;;;5071134;28;20405;-27
2022/04/20 09:18:31;;;;;;;5.13;3.03;;;;;;;;;;5071557;28;20127;-28
2022/04/20 09:21:04;;;;;;;4.30;3.00;;;;;;;;;;5071568;28;20033;-29
2022/04/20 09:23:30;;;;;;;3.78;2.88;;;;;;;;;;5072002;28;20047;-28
2022/04/20 09:25:57;;;;;;;3.97;3.60;;;;;;;;;;5072331;28;20052;-29
2022/04/20 09:28:24;;;;;;;6.38;3.20;;;;;;;;;;5054055;28;20037;-28
2022/04/20 09:30:51;;;;;;;5.63;3.20;;;;;;;;;;5054159;28;20055;-29
2022/04/20 09:33:17;;;;;;;5.10;3.20;;;;;;;;;;5054504;28;20287;-28
2022/04/20 09:35:45;;;;;;;6.88;2.60;;;;;;;;;;5071763;28;20323;-31
2022/04/20 09:38:11;;;;;;;5.20;2.78;;;;;;;;;;5071745;28;20044;-30
2022/04/20 09:40:38;;;;;;;4.25;2.67;;;;;;;;;;5054087;28;20071;-29
2022/04/20 09:43:22;;;;;;;6.20;2.63;;;;;;;;;;5072144;28;20537;-29
2022/04/20 09:46:02;;;;;;;2.90;2.40;;;;;;;;;;5037698;28;20402;-30
2022/04/20 09:51:20;;;;;;;3.20;2.30;;;;;;;;;;5071868;28;20051;-29
2022/04/20 09:53:48;;;;;;;2.50;1.95;;;;;;;;;;5072326;28;20561;-29
2022/04/20 09:56:16;;;;;;;4.03;2.78;;;;;;;;;;5054043;28;20051;-30
2022/04/20 09:58:43;;;;;;;2.45;2.20;;;;;;;;;;5053820;28;20048;-29
2022/04/20 10:01:23;;;;;;;2.33;2.13;;;;;;;;;;5071765;28;20128;-28
2022/04/20 10:03:53;;;;;;;2.85;2.30;;;;;;;;;;5072311;28;20576;-29
2022/04/20 10:06:19;;;;;;;2.95;2.63;;;;;;;;;;5072127;28;20040;-31
2022/04/20 10:08:46;;;;;;;2.80;2.42;;;;;;;;;;5037924;28;20079;-30
2022/04/20 10:11:13;;;;;;;3.05;2.25;;;;;;;;;;5054425;28;20478;-29
2022/04/20 10:13:40;;;;;;;2.25;2.05;;;;;;;;;;5071812;28;20052;-29
2022/04/20 10:16:09;;;;;;;2.65;2.35;;;;;;;;;;5068054;28;20077;-29
2022/04/20 10:18:37;;;;;;;2.38;2.17;;;;;;;;;;5051601;28;20049;-27
2022/04/20 10:21:04;;;;;;;3.22;2.58;;;;;;;;;;5054602;28;20095;-28
2022/04/20 10:23:30;;;;;;;3.38;2.58;;;;;;;;;;5055262;28;20041;-28
2022/04/20 10:25:58;;;;;;;4.38;2.45;;;;;;;;;;5055239;28;20080;-30
2022/04/20 10:28:53;;;;;;;5.85;2.35;;;;;;;;;;5055432;28;20033;-29
2022/04/20 10:31:29;;;;;;;2.35;2.15;;;;;;;;;;4967242;28;20051;-28
2022/04/20 10:33:55;;;;;;;2.90;2.33;;;;;;;;;;5036930;28;20041;-29
2022/04/20 10:36:29;;;;;;;4.88;2.78;;;;;;;;;;5004261;28;20391;-29
2022/04/20 10:39:15;;;;;;;7.65;3.00;;;;;;;;;;5020443;28;20051;-29
2022/04/20 10:41:41;;;;;;;2.65;2.45;;;;;;;;;;5054487;28;20041;-31
2022/04/20 10:44:07;;;;;;;2.92;2.60;;;;;;;;;;5056766;28;20041;-36
2022/04/20 10:46:34;;;;;;;3.60;3.25;;;;;;;;;;5074926;28;20460;-29
2022/04/20 10:49:02;;;;;;;5.03;3.05;;;;;;;;;;5039818;28;20379;-32
2022/04/20 10:51:34;;;;;;;4.28;2.78;;;;;;;;;;5055811;28;20047;-32
2022/04/20 10:54:37;;;;;;;3.03;2.60;;;;;;;;;;5056406;28;20044;-33
2022/04/20 10:57:04;;;;;;;3.43;2.57;;;;;;;;;;4956958;28;20042;-30
2022/04/20 10:59:30;;;;;;;2.55;2.35;;;;;;;;;;5039213;28;20287;-31
2022/04/20 11:01:59;;;;;;;3.55;2.60;;;;;;;;;;5073096;28;20036;-32
2022/04/20 11:04:32;;;;;;;3.13;2.60;;;;;;;;;;5073866;28;20486;-31
2022/04/20 11:07:01;;;;;;;2.95;2.30;;;;;;;;;;5052656;28;20068;-31
2022/04/20 11:09:42;;;;;;;3.20;2.60;;;;;;;;;;5055229;28;20120;-32
2022/04/20 11:21:01;;;;;;;3.92;2.75;;;;;;;;;;5055639;28;20452;-31
2022/04/20 11:23:46;;;;;;;3.10;2.20;;;;;;;;;;5073980;28;20044;-30
2022/04/20 11:26:12;;;;;;;2.10;2.00;;;;;;;;;;5073631;28;20079;-30
2022/04/20 11:28:41;;;;;;;5.22;2.58;;;;;;;;;;5073484;28;20040;-31
2022/04/20 11:31:09;;;;;;;3.55;2.40;;;;;;;;;;5071758;28;20036;-31
2022/04/20 11:33:37;;;;;;;4.47;2.25;;;;;;;;;;5067576;28;20059;-32
2022/04/20 11:36:03;;;;;;;4.55;2.25;;;;;;;;;;5067053;28;20387;-35
2022/04/20 11:38:42;;;;;;;6.50;2.30;;;;;;;;;;5065757;28;20037;-36
2022/04/20 11:41:12;;;;;;;2.45;1.90;;;;;;;;;;5060876;28;20029;-31
2022/04/20 11:43:38;;;;;;;3.97;2.10;;;;;;;;;;5061067;28;20067;-32
2022/04/20 11:46:05;;;;;;;4.03;2.30;;;;;;;;;;5068042;28;20033;-32
2022/04/20 11:48:38;;;;;;;3.30;2.38;;;;;;;;;;5067555;28;20032;-33
2022/04/20 11:51:07;;;;;;;2.08;1.88;;;;;;;;;;5069335;28;20044;-34
2022/04/20 11:53:33;;;;;;;3.58;2.35;;;;;;;;;;5062846;28;20534;-33
2022/04/20 11:56:01;;;;;;;3.58;2.15;;;;;;;;;;5062355;28;20482;-32
2022/04/20 11:58:28;;;;;;;3.40;2.17;;;;;;;;;;5065329;28;20064;-32
2022/04/20 12:01:01;;;;;;;2.20;2.08;;;;;;;;;;5060171;28;20089;-33
2022/04/20 12:03:31;;;;;;;2.10;1.90;;;;;;;;;;5050531;28;20485;-32
2022/04/20 12:06:01;;;;;;;4.03;2.10;;;;;;;;;;5067596;28;20044;-33
2022/04/20 12:08:27;;;;;;;2.17;1.98;;;;;;;;;;5057555;28;20040;-32
2022/04/20 12:10:53;;;;;;;2.33;2.00;;;;;;;;;;5062787;28;20040;-34
2022/04/20 12:13:26;;;;;;;2.22;1.88;;;;;;;;;;5062446;28;20045;-32
2022/04/20 12:16:03;;;;;;;3.92;2.00;;;;;;;;;;5064467;28;20032;-33
2022/04/20 12:18:30;;;;;;;7.13;2.20;;;;;;;;;;5062803;28;20043;-32
2022/04/20 12:20:57;;;;;;;2.78;2.25;;;;;;;;;;5066817;28;20112;-29
2022/04/20 12:23:24;;;;;;;2.05;1.95;;;;;;;;;;5072796;28;20051;-29
2022/04/20 12:25:53;;;;;;;2.90;2.40;;;;;;;;;;5072370;28;20059;-29
2022/04/20 12:31:08;;;;;;;2.92;2.28;;;;;;;;;;5072359;28;20055;-29
2022/04/20 12:33:37;;;;;;;4.38;2.20;;;;;;;;;;5072203;28;20036;-30
2022/04/20 12:36:08;;;;;;;4.55;2.22;;;;;;;;;;5072003;28;20044;-31
2022/04/20 12:38:47;;;;;;;4.00;2.17;;;;;;;;;;5071595;28;20048;-29
2022/04/20 12:41:32;;;;;;;2.65;1.95;;;;;;;;;;5071577;28;20044;-28
2022/04/20 12:43:58;;;;;;;3.97;2.38;;;;;;;;;;5071829;28;20126;-29
2022/04/20 12:46:35;;;;;;;3.17;2.40;;;;;;;;;;5055968;28;20035;-32
2022/04/20 12:49:02;;;;;;;3.10;2.60;;;;;;;;;;5061242;28;20044;-32
2022/04/20 12:51:28;;;;;;;4.90;3.03;;;;;;;;;;5055874;28;20398;-32
2022/04/20 12:53:55;;;;;;;6.75;2.78;;;;;;;;;;5064115;28;20044;-33
2022/04/20 13:02:03;;;;;;;5.53;3.42;;;;;;;;;;5058868;28;20040;-31
2022/04/20 13:04:30;;;;;;;3.42;3.13;;;;;;;;;;5059168;28;20124;-33
2022/04/20 13:06:56;;;;;;;5.82;3.15;;;;;;;;;;5064093;28;20037;-32
2022/04/20 13:09:22;;;;;;;3.22;2.80;;;;;;;;;;5066116;28;20039;-33
2022/04/20 13:11:49;;;;;;;4.20;3.35;;;;;;;;;;5054210;28;20048;-31
2022/04/20 13:14:15;;;;;;;5.28;3.50;;;;;;;;;;5071218;28;20066;-29
2022/04/20 13:16:41;;;;;;;3.60;3.30;;;;;;;;;;5070761;28;20044;-29
2022/04/20 13:19:08;;;;;;;3.78;3.25;;;;;;;;;;5053444;28;20333;-31
2022/04/20 13:21:34;;;;;;;3.63;3.08;;;;;;;;;;5071636;28;20045;-30
2022/04/20 13:24:00;;;;;;;4.22;3.83;;;;;;;;;;5071193;28;20098;-29
2022/04/20 13:29:12;;;;;;;5.32;3.72;;;;;;;;;;5071720;28;20044;-30
2022/04/20 13:31:38;;;;;;;5.97;3.85;;;;;;;;;;5071367;28;20063;-30
2022/04/20 13:34:04;;;;;;;3.95;3.20;;;;;;;;;;5071683;28;20072;-29
2022/04/20 13:36:31;;;;;;;6.18;3.70;;;;;;;;;;5071372;28;20100;-29
2022/04/20 13:38:57;;;;;;;4.03;3.70;;;;;;;;;;5071801;28;20054;-29
2022/04/20 13:41:23;;;;;;;3.67;3.45;;;;;;;;;;5071694;28;20036;-29
2022/04/20 13:43:50;;;;;;;4.50;3.70;;;;;;;;;;5071557;28;20083;-29
2022/04/20 13:46:16;;;;;;;6.28;3.90;;;;;;;;;;5053331;28;20086;-29
2022/04/20 13:48:42;;;;;;;3.83;3.28;;;;;;;;;;5071939;28;20085;-28
2022/04/20 13:51:08;;;;;;;3.92;3.60;;;;;;;;;;5071392;28;20052;-31
2022/04/20 13:53:34;;;;;;;4.03;3.72;;;;;;;;;;5071664;28;20507;-30
2022/04/20 13:56:00;;;;;;;4.65;4.32;;;;;;;;;;5075387;28;20254;-30
2022/04/20 13:58:27;;;;;;;3.85;3.47;;;;;;;;;;5075771;28;20048;-30
2022/04/20 14:00:53;;;;;;;4.13;3.72;;;;;;;;;;5075807;28;20458;-29
2022/04/20 14:03:19;;;;;;;5.07;4.00;;;;;;;;;;5075845;28;20397;-28
2022/04/20 14:05:45;;;;;;;4.05;3.58;;;;;;;;;;5075360;28;20041;-29
2022/04/20 14:08:11;;;;;;;6.07;3.85;;;;;;;;;;5075391;28;20436;-28
2022/04/20 14:10:38;;;;;;;8.07;3.80;;;;;;;;;;5074456;28;20040;-29
2022/04/20 14:13:04;;;;;;;3.83;3.50;;;;;;;;;;5074796;28;20051;-29
2022/04/20 14:15:31;;;;;;;3.40;3.00;;;;;;;;;;5057095;28;20059;-29
2022/04/20 14:17:57;;;;;;;5.20;3.67;;;;;;;;;;5074619;28;20056;-28
2022/04/20 14:20:23;;;;;;;5.57;4.30;;;;;;;;;;5074345;28;20080;-30
2022/04/20 14:22:49;;;;;;;4.28;3.92;;;;;;;;;;5074805;28;20120;-30
2022/04/20 14:33:30;;;;;;;4.10;3.47;;;;;;;;;;5059188;28;20123;-29
2022/04/20 14:35:56;;;;;;;4.07;3.78;;;;;;;;;;5074599;28;20383;-29
2022/04/20 14:38:23;;;;;;;3.90;3.42;;;;;;;;;;5074210;28;20173;-29
2022/04/20 14:40:50;;;;;;;4.45;3.78;;;;;;;;;;5074213;28;20035;-30
2022/04/20 14:43:16;;;;;;;5.25;3.90;;;;;;;;;;5074212;28;20048;-29
2022/04/20 14:45:42;;;;;;;4.20;3.75;;;;;;;;;;5074323;28;20383;-30
2022/04/20 14:48:08;;;;;;;7.65;3.97;;;;;;;;;;5072859;28;20119;-29
2022/04/20 14:50:35;;;;;;;5.57;3.28;;;;;;;;;;5074246;28;20048;-29
2022/04/20 14:53:01;;;;;;;5.40;3.80;;;;;;;;;;5074252;28;20048;-31
2022/04/20 14:55:29;;;;;;;3.90;3.58;;;;;;;;;;5073976;28;20127;-29
2022/04/20 14:57:56;;;;;;;5.35;3.60;;;;;;;;;;5056723;28;20098;-29
2022/04/20 15:00:22;;;;;;;4.00;3.60;;;;;;;;;;5074173;28;20123;-29
2022/04/20 15:02:50;;;;;;;4.18;3.30;;;;;;;;;;5074765;28;20040;-29
2022/04/20 15:05:16;;;;;;;3.72;3.42;;;;;;;;;;5073021;28;20037;-29
2022/04/20 15:07:44;;;;;;;4.60;3.10;;;;;;;;;;5073355;28;20040;-29
2022/04/20 15:10:11;;;;;;;4.90;4.13;;;;;;;;;;5073823;28;20110;-29
2022/04/20 15:12:40;;;;;;;3.80;3.58;;;;;;;;;;5073441;28;20043;-29
2022/04/20 15:15:08;;;;;;;4.53;4.20;;;;;;;;;;5072383;28;20039;-29
2022/04/20 15:17:34;;;;;;;4.43;4.00;;;;;;;;;;5073630;28;20578;-30
2022/04/20 15:20:00;;;;;;;3.97;3.60;;;;;;;;;;5073633;28;20041;-28
2022/04/20 15:22:26;;;;;;;6.22;3.53;;;;;;;;;;5073504;28;20037;-29
2022/04/20 15:24:53;;;;;;;4.10;3.80;;;;;;;;;;5073259;28;20076;-29
2022/04/20 15:27:19;;;;;;;4.13;3.83;;;;;;;;;;5073523;28;20523;-30
2022/04/20 15:29:45;;;;;;;4.70;4.22;;;;;;;;;;5073106;28;20043;-30
2022/04/20 15:32:11;;;;;;;4.10;3.80;;;;;;;;;;5072532;28;20080;-32
2022/04/20 15:34:38;;;;;;;3.95;3.63;;;;;;;;;;5072074;28;20041;-31